createdAt,value
2023-02-17T00:02:20.781Z,10.13
2023-02-17T00:04:48.788Z,7.53
2023-02-17T00:07:16.686Z,8.70
2023-02-17T00:09:44.601Z,5.97
2023-02-17T00:12:12.579Z,2.83
2023-02-17T00:14:41.958Z,8.57
2023-02-17T00:17:09.881Z,8.00
2023-02-17T00:19:37.763Z,3.80
2023-02-17T00:22:05.662Z,7.00
2023-02-17T00:24:33.776Z,14.30
2023-02-17T00:27:01.679Z,5.63
2023-02-17T00:29:29.576Z,2.47
2023-02-17T00:31:58.914Z,7.50
2023-02-17T00:34:28.144Z,4.60
2023-02-17T00:36:56.063Z,6.07
2023-02-17T00:39:23.930Z,8.63
2023-02-17T00:41:51.846Z,4.70
2023-02-17T00:44:20.476Z,12.50
2023-02-17T00:46:48.391Z,8.13
2023-02-17T00:49:19.102Z,6.63
2023-02-17T00:51:47.092Z,14.27
2023-02-17T00:54:15.004Z,9.50
2023-02-17T00:56:42.979Z,6.23
2023-02-17T00:59:10.990Z,6.13
2023-02-17T01:01:39.030Z,4.67
2023-02-17T01:04:06.952Z,5.83
2023-02-17T01:06:36.903Z,4.97
2023-02-17T01:09:05.131Z,7.60
2023-02-17T01:11:33.394Z,11.73
2023-02-17T01:14:01.453Z,5.70
2023-02-17T01:16:30.178Z,3.73
2023-02-17T01:18:58.089Z,5.10
2023-02-17T01:21:27.113Z,8.37
2023-02-17T01:23:57.158Z,1.63
2023-02-17T01:26:25.880Z,4.10
2023-02-17T01:28:53.915Z,7.30
2023-02-17T01:31:22.157Z,8.87
2023-02-17T01:33:50.171Z,12.37
2023-02-17T01:36:18.863Z,6.23
2023-02-17T01:38:47.503Z,5.23
2023-02-17T01:41:17.418Z,10.07
2023-02-17T01:44:00.273Z,3.80
2023-02-17T01:46:28.217Z,7.20
2023-02-17T01:48:56.096Z,10.13
2023-02-17T01:51:25.052Z,4.87
2023-02-17T01:53:57.227Z,2.10
2023-02-17T01:56:26.467Z,6.70
2023-02-17T01:58:56.764Z,3.97
2023-02-17T02:01:24.756Z,11.10
2023-02-17T02:03:53.012Z,3.53
2023-02-17T02:06:22.532Z,2.40
2023-02-17T02:08:52.544Z,5.23
2023-02-17T02:11:20.450Z,6.63
2023-02-17T02:13:52.452Z,11.33
2023-02-17T02:16:22.908Z,5.90
2023-02-17T02:18:54.708Z,13.40
2023-02-17T02:21:42.137Z,16.13
2023-02-17T02:24:42.358Z,14.40
2023-02-17T02:27:30.607Z,15.40
2023-02-17T02:30:10.762Z,9.67
2023-02-17T02:33:06.069Z,10.37
2023-02-17T02:35:37.985Z,12.47
2023-02-17T02:38:07.826Z,5.50
2023-02-17T02:40:37.386Z,14.27
2023-02-17T02:43:05.336Z,9.97
2023-02-17T02:45:35.040Z,14.53
2023-02-17T02:48:03.222Z,14.13
2023-02-17T02:50:39.495Z,10.90
2023-02-17T02:53:21.877Z,14.33
2023-02-17T02:55:53.969Z,16.50
2023-02-17T02:58:22.825Z,11.13
2023-02-17T03:00:54.536Z,9.23
2023-02-17T03:03:26.042Z,10.83
2023-02-17T03:05:57.307Z,8.97
2023-02-17T03:08:27.743Z,8.13
2023-02-17T03:10:55.684Z,11.70
2023-02-17T03:13:23.596Z,9.60
2023-02-17T03:15:51.495Z,17.60
2023-02-17T03:18:19.346Z,15.13
2023-02-17T03:20:49.724Z,12.47
2023-02-17T03:23:19.064Z,14.27
2023-02-17T03:25:47.642Z,9.50
2023-02-17T03:28:15.570Z,15.77
2023-02-17T03:30:43.488Z,12.23
2023-02-17T03:33:11.340Z,17.30
2023-02-17T03:35:39.221Z,12.73
2023-02-17T03:38:07.095Z,13.30
2023-02-17T03:40:36.347Z,4.87
2023-02-17T03:43:04.237Z,15.30
2023-02-17T03:45:32.099Z,13.03
2023-02-17T03:48:00.014Z,17.33
2023-02-17T03:50:28.023Z,12.30
2023-02-17T03:52:55.895Z,8.83
2023-02-17T03:55:23.965Z,8.27
2023-02-17T03:57:53.275Z,12.00
2023-02-17T04:00:21.825Z,10.63
2023-02-17T04:02:49.710Z,11.53
2023-02-17T04:05:17.756Z,11.03
2023-02-17T04:07:45.627Z,9.73
2023-02-17T04:10:16.390Z,10.33
2023-02-17T04:12:44.297Z,8.77
2023-02-17T04:15:13.554Z,6.70
2023-02-17T04:17:41.415Z,8.37
2023-02-17T04:20:10.054Z,17.30
2023-02-17T04:22:37.967Z,7.50
2023-02-17T04:25:06.204Z,6.60
2023-02-17T04:27:34.094Z,8.77
2023-02-17T04:30:02.230Z,10.27
2023-02-17T04:32:31.984Z,12.77
2023-02-17T04:34:59.855Z,13.83
2023-02-17T04:37:27.828Z,13.87
2023-02-17T04:39:55.701Z,11.93
2023-02-17T04:42:23.556Z,20.33
2023-02-17T04:44:51.450Z,6.73
2023-02-17T04:47:19.393Z,7.77
2023-02-17T04:49:48.671Z,13.43
2023-02-17T04:52:16.608Z,7.60
2023-02-17T04:54:44.504Z,5.73
2023-02-17T04:57:12.426Z,3.83
2023-02-17T04:59:40.331Z,10.63
2023-02-17T05:02:08.230Z,16.17
2023-02-17T05:04:36.173Z,12.30
2023-02-17T05:07:05.406Z,12.90
2023-02-17T05:09:33.310Z,7.70
2023-02-17T05:12:03.057Z,15.63
2023-02-17T05:14:30.943Z,7.10
2023-02-17T05:16:58.816Z,15.53
2023-02-17T05:19:26.718Z,8.50
2023-02-17T05:21:54.619Z,17.33
2023-02-17T05:24:23.894Z,7.70
2023-02-17T05:26:51.880Z,10.43
2023-02-17T05:29:19.792Z,13.83
2023-02-17T05:31:47.783Z,11.57
2023-02-17T05:34:15.699Z,22.73
2023-02-17T05:36:43.564Z,17.63
2023-02-17T05:39:11.450Z,17.40
2023-02-17T05:41:40.759Z,10.03
2023-02-17T05:44:08.599Z,15.13
2023-02-17T05:46:36.533Z,15.80
2023-02-17T05:49:04.484Z,15.10
2023-02-17T05:51:32.330Z,11.03
2023-02-17T05:54:00.234Z,13.53
2023-02-17T05:56:28.153Z,9.27
2023-02-17T05:58:57.425Z,11.00
2023-02-17T06:01:25.311Z,12.57
2023-02-17T06:03:53.151Z,13.03
2023-02-17T06:06:21.046Z,16.47
2023-02-17T06:08:48.939Z,13.83
2023-02-17T06:11:16.791Z,22.00
2023-02-17T06:13:44.699Z,17.73
2023-02-17T06:16:14.083Z,21.00
2023-02-17T06:18:42.023Z,38.33
2023-02-17T06:21:09.872Z,25.70
2023-02-17T06:23:37.770Z,22.57
2023-02-17T06:26:06.080Z,18.73
2023-02-17T06:28:35.146Z,12.83
2023-02-17T06:31:03.229Z,20.03
2023-02-17T06:33:32.581Z,19.47
2023-02-17T06:36:00.435Z,14.77
2023-02-17T06:38:28.487Z,14.17
2023-02-17T06:40:56.414Z,12.03
2023-02-17T06:43:24.307Z,20.17
2023-02-17T06:45:52.228Z,8.00
2023-02-17T06:48:20.097Z,35.10
2023-02-17T06:50:50.088Z,18.53
2023-02-17T06:53:17.986Z,18.53
2023-02-17T06:55:45.867Z,21.70
2023-02-17T06:58:13.730Z,14.67
2023-02-17T07:00:41.630Z,22.13
2023-02-17T07:03:09.580Z,22.57
2023-02-17T07:05:37.540Z,24.47
2023-02-17T07:08:07.204Z,24.53
2023-02-17T07:10:35.150Z,19.80
2023-02-17T07:13:03.019Z,19.80
2023-02-17T07:15:30.964Z,16.00
2023-02-17T07:17:58.872Z,17.07
2023-02-17T07:20:26.764Z,31.43
2023-02-17T07:22:54.709Z,12.90
2023-02-17T07:25:23.950Z,20.80
2023-02-17T07:27:51.854Z,24.63
2023-02-17T07:30:19.858Z,24.87
2023-02-17T07:32:47.695Z,19.63
2023-02-17T07:35:15.565Z,19.67
2023-02-17T07:37:43.376Z,23.97
2023-02-17T07:40:11.999Z,22.77
2023-02-17T07:42:41.268Z,14.80
2023-02-17T07:45:09.893Z,21.60
2023-02-17T07:47:37.853Z,18.50
2023-02-17T07:50:06.790Z,15.90
2023-02-17T07:52:34.659Z,21.20
2023-02-17T07:55:02.575Z,13.63
2023-02-17T07:57:30.826Z,18.37
2023-02-17T08:00:00.159Z,22.53
2023-02-17T08:02:28.091Z,22.03
2023-02-17T08:04:55.934Z,18.47
2023-02-17T08:07:23.844Z,17.43
2023-02-17T08:10:09.188Z,22.23
2023-02-17T08:12:54.401Z,16.77
2023-02-17T08:15:23.933Z,13.20
2023-02-17T08:17:53.302Z,11.50
2023-02-17T08:20:21.503Z,9.13
2023-02-17T08:22:49.422Z,10.83
2023-02-17T08:25:17.406Z,8.33
2023-02-17T08:27:45.401Z,18.07
2023-02-17T08:30:13.955Z,9.13
2023-02-17T08:32:43.282Z,8.37
2023-02-17T08:35:11.269Z,9.00
2023-02-17T08:37:39.247Z,5.90
2023-02-17T08:40:08.568Z,5.93
2023-02-17T08:42:36.960Z,18.47
2023-02-17T08:45:05.342Z,17.33
2023-02-17T08:47:33.553Z,5.10
2023-02-17T08:50:02.932Z,6.00
2023-02-17T08:52:30.877Z,7.03
2023-02-17T08:54:58.790Z,11.73
2023-02-17T08:57:26.676Z,12.07
2023-02-17T08:59:54.680Z,17.20
2023-02-17T09:02:22.544Z,17.47
2023-02-17T09:04:50.534Z,10.97
2023-02-17T09:07:19.901Z,9.67
2023-02-17T09:09:47.899Z,8.70
2023-02-17T09:12:16.053Z,12.47
2023-02-17T09:14:43.971Z,10.87
2023-02-17T09:17:11.891Z,16.00
2023-02-17T09:19:40.909Z,11.83
2023-02-17T09:22:08.795Z,11.33
2023-02-17T09:24:40.114Z,8.60
2023-02-17T09:27:08.138Z,7.17
2023-02-17T09:29:37.547Z,13.33
2023-02-17T09:32:08.097Z,14.60
2023-02-17T09:34:37.118Z,14.03
2023-02-17T09:37:05.246Z,11.63
2023-02-17T09:39:33.396Z,17.57
2023-02-17T09:42:02.697Z,8.30
2023-02-17T09:44:33.859Z,14.00
2023-02-17T09:47:03.382Z,18.20
2023-02-17T09:49:34.241Z,21.37
2023-02-17T09:52:04.299Z,11.67
2023-02-17T09:54:35.625Z,15.07
2023-02-17T09:57:05.207Z,21.67
2023-02-17T09:59:35.517Z,21.80
2023-02-17T10:02:06.256Z,27.00
2023-02-17T10:04:36.535Z,27.97
2023-02-17T10:07:08.578Z,20.40
2023-02-17T10:09:39.616Z,22.40
2023-02-17T10:12:10.696Z,14.50
2023-02-17T10:14:41.276Z,26.77
2023-02-17T10:17:11.584Z,15.63
2023-02-17T10:19:42.587Z,23.07
2023-02-17T10:22:14.010Z,25.80
2023-02-17T10:24:41.985Z,18.47
2023-02-17T10:27:23.409Z,21.83
2023-02-17T10:29:54.860Z,21.47
2023-02-17T10:32:24.354Z,19.50
2023-02-17T10:34:59.597Z,17.47
2023-02-17T10:37:31.070Z,17.37
2023-02-17T10:40:01.464Z,12.43
2023-02-17T10:42:32.155Z,27.60
2023-02-17T10:45:01.682Z,16.23
2023-02-17T10:47:29.622Z,17.03
2023-02-17T10:49:57.727Z,18.83
2023-02-17T10:52:37.801Z,17.00
2023-02-17T10:55:21.927Z,17.73
2023-02-17T10:57:53.814Z,16.97
2023-02-17T11:00:22.611Z,17.20
2023-02-17T11:02:51.864Z,18.77
2023-02-17T11:05:24.888Z,11.67
2023-02-17T11:07:57.064Z,14.30
2023-02-17T11:10:26.997Z,20.97
2023-02-17T11:12:58.153Z,13.10
2023-02-17T11:15:28.368Z,17.60
2023-02-17T11:17:56.653Z,13.50
2023-02-17T11:20:33.520Z,9.93
2023-02-17T11:23:04.967Z,14.50
2023-02-17T11:25:33.670Z,18.20
2023-02-17T11:28:03.737Z,21.87
2023-02-17T11:30:32.948Z,6.33
2023-02-17T11:33:01.267Z,20.60
2023-02-17T11:35:45.079Z,13.30
2023-02-17T11:38:14.400Z,8.40
2023-02-17T11:40:42.387Z,9.20
2023-02-17T11:43:19.114Z,7.87
2023-02-17T11:46:00.995Z,19.27
2023-02-17T11:49:07.689Z,12.67
2023-02-17T11:51:42.375Z,17.93
2023-02-17T11:54:16.490Z,17.87
2023-02-17T11:56:47.206Z,10.87
2023-02-17T11:59:32.170Z,15.17
2023-02-17T12:02:15.739Z,12.67
2023-02-17T12:04:46.390Z,16.27
2023-02-17T12:07:22.828Z,17.47
2023-02-17T12:09:54.561Z,16.30
2023-02-17T12:12:27.836Z,16.17
2023-02-17T12:15:03.281Z,15.27
2023-02-17T12:17:36.974Z,20.80
2023-02-17T12:20:09.508Z,12.97
2023-02-17T12:22:41.498Z,11.90
2023-02-17T12:25:25.781Z,18.27
2023-02-17T12:28:06.722Z,17.73
2023-02-17T12:30:41.592Z,11.03
2023-02-17T12:33:26.785Z,7.70
2023-02-17T12:35:55.698Z,12.87
2023-02-17T12:38:26.203Z,14.33
2023-02-17T12:40:56.497Z,20.43
2023-02-17T12:43:26.672Z,10.87
2023-02-17T12:45:57.730Z,20.53
2023-02-17T12:48:28.063Z,8.93
2023-02-17T12:50:57.755Z,21.40
2023-02-17T12:53:28.140Z,24.67
2023-02-17T12:55:58.013Z,18.23
2023-02-17T12:58:26.637Z,12.10
2023-02-17T13:00:58.527Z,20.23
2023-02-17T13:03:26.456Z,11.10
2023-02-17T13:05:58.385Z,16.50
2023-02-17T13:08:28.212Z,16.30
2023-02-17T13:11:01.798Z,19.93
2023-02-17T13:13:30.717Z,14.40
2023-02-17T13:16:08.330Z,20.57
2023-02-17T13:18:37.045Z,17.23
2023-02-17T13:21:17.152Z,22.43
2023-02-17T13:23:45.938Z,15.47
2023-02-17T13:26:28.014Z,19.77
2023-02-17T13:29:07.239Z,18.57
2023-02-17T13:31:45.643Z,11.43
2023-02-17T13:34:23.886Z,18.10
2023-02-17T13:36:51.772Z,16.87
2023-02-17T13:39:32.774Z,12.17
2023-02-17T13:42:01.180Z,15.37
2023-02-17T13:44:29.889Z,33.47
2023-02-17T13:47:01.275Z,22.80
2023-02-17T13:49:32.892Z,22.83
2023-02-17T13:52:11.960Z,14.93
2023-02-17T13:54:42.002Z,17.87
2023-02-17T13:57:26.352Z,13.27
2023-02-17T13:59:54.389Z,23.37
2023-02-17T14:02:35.510Z,11.93
2023-02-17T14:05:10.932Z,18.00
2023-02-17T14:07:39.366Z,26.93
2023-02-17T14:10:20.638Z,8.93
2023-02-17T14:12:49.907Z,10.03
2023-02-17T14:15:18.276Z,11.90
2023-02-17T14:17:47.583Z,17.90
2023-02-17T14:20:32.705Z,17.53
2023-02-17T14:23:04.221Z,15.93
2023-02-17T14:25:33.738Z,25.03
2023-02-17T14:28:01.593Z,16.67
2023-02-17T14:30:30.915Z,11.07
2023-02-17T14:33:19.858Z,10.43
2023-02-17T14:35:51.511Z,14.53
2023-02-17T14:38:23.059Z,17.73
2023-02-17T14:40:50.992Z,15.57
2023-02-17T14:43:18.888Z,14.53
2023-02-17T14:45:46.871Z,20.27
2023-02-17T14:48:16.330Z,21.33
2023-02-17T14:50:44.282Z,11.70
2023-02-17T14:53:14.429Z,30.63
2023-02-17T14:55:45.455Z,13.53
2023-02-17T14:58:15.500Z,15.70
2023-02-17T15:00:43.383Z,24.53
2023-02-17T15:03:11.494Z,11.40
2023-02-17T15:05:40.787Z,26.20
2023-02-17T15:08:10.818Z,21.03
2023-02-17T15:10:39.929Z,24.90
2023-02-17T15:13:07.918Z,28.43
2023-02-17T15:15:39.254Z,23.60
2023-02-17T15:18:07.197Z,21.27
2023-02-17T15:20:35.126Z,19.53
2023-02-17T15:23:04.408Z,37.70
2023-02-17T15:25:32.541Z,27.30
2023-02-17T15:28:00.438Z,42.37
2023-02-17T15:30:28.630Z,29.17
2023-02-17T15:32:56.571Z,39.67
2023-02-17T15:35:25.734Z,37.10
2023-02-17T15:37:53.678Z,55.10
2023-02-17T15:40:24.010Z,29.13
2023-02-17T15:42:54.326Z,36.03
2023-02-17T15:45:22.349Z,57.77
2023-02-17T15:47:50.664Z,41.63
2023-02-17T15:50:20.700Z,31.47
2023-02-17T15:52:49.049Z,32.40
2023-02-17T15:55:17.228Z,39.87
2023-02-17T15:57:48.013Z,36.00
2023-02-17T16:00:24.106Z,27.30
2023-02-17T16:02:52.176Z,24.93
2023-02-17T16:05:21.351Z,21.10
2023-02-17T16:07:49.276Z,17.63
2023-02-17T16:10:18.526Z,19.90
2023-02-17T16:12:47.812Z,18.70
2023-02-17T16:15:16.886Z,13.47
2023-02-17T16:17:44.806Z,25.53
2023-02-17T16:20:15.852Z,15.97
2023-02-17T16:22:44.394Z,43.00
2023-02-17T16:25:12.336Z,24.10
2023-02-17T16:27:40.279Z,34.47
2023-02-17T16:30:21.113Z,25.30
2023-02-17T16:32:49.120Z,20.77
2023-02-17T16:35:17.941Z,14.60
2023-02-17T16:37:50.316Z,25.07
2023-02-17T16:40:18.843Z,26.27
2023-02-17T16:42:46.761Z,17.20
2023-02-17T16:45:20.157Z,14.90
2023-02-17T16:47:49.539Z,15.03
2023-02-17T16:50:26.645Z,17.50
2023-02-17T16:52:55.237Z,20.67
2023-02-17T16:55:24.558Z,21.50
2023-02-17T16:57:52.484Z,19.57
2023-02-17T17:00:23.087Z,25.23
2023-02-17T17:02:51.274Z,11.37
2023-02-17T17:05:19.528Z,15.27
2023-02-17T17:07:47.534Z,16.17
2023-02-17T17:10:17.487Z,19.20
2023-02-17T17:12:45.570Z,14.03
2023-02-17T17:15:13.672Z,14.83
2023-02-17T17:17:44.187Z,18.43
2023-02-17T17:20:14.938Z,7.80
2023-02-17T17:22:42.887Z,10.13
2023-02-17T17:25:10.829Z,17.97
2023-02-17T17:27:38.745Z,20.70
2023-02-17T17:30:07.573Z,12.83
2023-02-17T17:32:35.498Z,17.83
2023-02-17T17:35:04.850Z,19.73
2023-02-17T17:37:32.740Z,16.50
2023-02-17T17:40:00.768Z,22.37
2023-02-17T17:42:28.671Z,15.00
2023-02-17T17:44:56.532Z,14.80
2023-02-17T17:47:29.999Z,10.83
2023-02-17T17:49:58.498Z,6.93
2023-02-17T17:52:27.842Z,13.30
2023-02-17T17:54:55.728Z,9.67
2023-02-17T17:57:23.620Z,14.03
2023-02-17T17:59:51.617Z,8.97
2023-02-17T18:02:19.496Z,11.93
2023-02-17T18:04:47.826Z,13.63
2023-02-17T18:07:15.843Z,10.00
2023-02-17T18:09:45.149Z,13.60
2023-02-17T18:12:13.779Z,13.13
2023-02-17T18:14:41.709Z,7.17
2023-02-17T18:17:09.691Z,17.13
2023-02-17T18:19:37.634Z,10.67
2023-02-17T18:22:05.557Z,10.33
2023-02-17T18:24:33.866Z,14.63
2023-02-17T18:27:03.281Z,16.67
2023-02-17T18:29:31.410Z,12.93
2023-02-17T18:32:00.137Z,7.67
2023-02-17T18:34:28.107Z,12.27
2023-02-17T18:36:56.030Z,18.97
2023-02-17T18:39:23.883Z,16.67
2023-02-17T18:41:51.737Z,14.70
2023-02-17T18:44:21.026Z,12.67
2023-02-17T18:46:48.990Z,11.43
2023-02-17T18:49:16.839Z,14.90
2023-02-17T18:51:44.797Z,17.23
2023-02-17T18:54:12.948Z,14.60
2023-02-17T18:56:40.833Z,16.73
2023-02-17T18:59:08.707Z,16.90
2023-02-17T19:01:39.762Z,13.43
2023-02-17T19:04:09.617Z,9.97
2023-02-17T19:06:37.573Z,8.67
2023-02-17T19:09:05.464Z,10.73
2023-02-17T19:11:33.590Z,3.30
2023-02-17T19:14:01.663Z,5.07
2023-02-17T19:16:30.489Z,7.17
2023-02-17T19:18:59.837Z,10.30
2023-02-17T19:21:27.754Z,12.57
2023-02-17T19:23:55.761Z,6.53
2023-02-17T19:26:23.736Z,9.77
2023-02-17T19:28:51.640Z,15.13
2023-02-17T19:31:20.513Z,8.50
2023-02-17T19:33:48.639Z,10.07
2023-02-17T19:36:19.125Z,11.07
2023-02-17T19:38:47.178Z,2.87
2023-02-17T19:41:15.364Z,4.37
2023-02-17T19:43:43.413Z,5.47
2023-02-17T19:46:12.375Z,5.70
2023-02-17T19:48:40.315Z,5.27
2023-02-17T19:51:08.983Z,6.20
2023-02-17T19:53:38.230Z,5.67
2023-02-17T19:56:11.951Z,3.37
2023-02-17T19:58:40.512Z,4.47
2023-02-17T20:01:09.087Z,5.47
2023-02-17T20:03:37.044Z,7.97
2023-02-17T20:06:09.660Z,3.63
2023-02-17T20:08:39.071Z,5.63
2023-02-17T20:11:07.967Z,11.83
2023-02-17T20:13:45.217Z,7.20
2023-02-17T20:16:14.158Z,11.33
2023-02-17T20:18:42.776Z,5.13
2023-02-17T20:21:10.755Z,13.33
2023-02-17T20:23:39.927Z,15.17
2023-02-17T20:26:08.493Z,27.23
2023-02-17T20:28:36.670Z,21.33
2023-02-17T20:31:04.616Z,32.30
2023-02-17T20:33:32.515Z,25.07
2023-02-17T20:36:00.696Z,36.33
2023-02-17T20:38:28.620Z,44.70
2023-02-17T20:40:57.860Z,38.70
2023-02-17T20:43:25.663Z,42.43
2023-02-17T20:45:53.653Z,57.60
2023-02-17T20:48:21.831Z,57.40
2023-02-17T20:50:50.042Z,46.47
2023-02-17T20:53:17.925Z,42.53
2023-02-17T20:55:46.175Z,53.03
2023-02-17T20:58:15.355Z,46.50
2023-02-17T21:00:43.285Z,49.17
2023-02-17T21:03:11.273Z,39.13
2023-02-17T21:05:39.211Z,46.87
2023-02-17T21:08:07.185Z,33.47
2023-02-17T21:10:35.058Z,49.20
2023-02-17T21:13:02.940Z,41.13
2023-02-17T21:15:32.177Z,36.33
2023-02-17T21:18:00.066Z,26.83
2023-02-17T21:20:28.032Z,40.87
2023-02-17T21:22:55.909Z,38.83
2023-02-17T21:25:23.840Z,47.33
2023-02-17T21:27:51.780Z,39.90
2023-02-17T21:30:20.004Z,53.10
2023-02-17T21:32:49.284Z,41.80
2023-02-17T21:35:17.338Z,34.80
2023-02-17T21:37:45.219Z,24.87
2023-02-17T21:40:13.643Z,25.90
2023-02-17T21:42:59.160Z,39.13
2023-02-17T21:45:27.179Z,35.07
2023-02-17T21:47:56.450Z,32.43
2023-02-17T21:50:24.565Z,25.73
2023-02-17T21:52:53.174Z,36.30
2023-02-17T21:55:21.131Z,38.63
2023-02-17T21:57:49.056Z,26.57
2023-02-17T22:00:17.938Z,24.80
2023-02-17T22:02:45.920Z,29.87
2023-02-17T22:05:15.198Z,30.20
2023-02-17T22:07:43.070Z,32.60
2023-02-17T22:10:11.335Z,23.30
2023-02-17T22:12:39.261Z,23.83
2023-02-17T22:15:07.818Z,17.20
2023-02-17T22:17:35.792Z,27.60
2023-02-17T22:20:04.714Z,24.97
2023-02-17T22:22:34.019Z,23.60
2023-02-17T22:25:01.934Z,9.00
2023-02-17T22:27:29.830Z,22.27
2023-02-17T22:29:57.875Z,31.83
2023-02-17T22:32:25.934Z,25.27
2023-02-17T22:34:53.908Z,24.47
2023-02-17T22:37:21.902Z,17.27
2023-02-17T22:39:53.229Z,19.10
2023-02-17T22:42:21.156Z,16.80
2023-02-17T22:44:49.209Z,21.63
2023-02-17T22:47:17.149Z,21.50
2023-02-17T22:49:45.069Z,18.40
2023-02-17T22:52:12.933Z,26.60
2023-02-17T22:54:41.037Z,22.10
2023-02-17T22:57:10.314Z,25.63
2023-02-17T22:59:38.205Z,30.07
2023-02-17T23:02:06.068Z,20.43
2023-02-17T23:04:33.986Z,25.33
2023-02-17T23:07:01.922Z,25.37
2023-02-17T23:09:29.805Z,20.57
2023-02-17T23:11:58.464Z,20.10
2023-02-17T23:14:29.186Z,24.63
2023-02-17T23:16:59.195Z,16.77
2023-02-17T23:19:27.163Z,12.10
2023-02-17T23:21:56.761Z,10.97
2023-02-17T23:24:24.943Z,17.23
2023-02-17T23:26:52.830Z,18.90
2023-02-17T23:29:20.745Z,15.23
2023-02-17T23:31:50.115Z,21.43
2023-02-17T23:34:18.064Z,15.50
2023-02-17T23:36:46.185Z,24.83
2023-02-17T23:39:14.081Z,13.23
2023-02-17T23:41:41.962Z,19.33
2023-02-17T23:44:10.843Z,24.10
2023-02-17T23:46:39.120Z,26.60
2023-02-17T23:49:08.392Z,15.70
2023-02-17T23:51:36.260Z,20.60
2023-02-17T23:54:04.322Z,18.03
2023-02-17T23:56:32.994Z,18.00
2023-02-17T23:59:01.271Z,24.60
